createdAt,value
2018-05-18T00:02:40.516Z,101209.98
2018-05-18T00:05:45.770Z,101205.33
2018-05-18T00:08:52.738Z,101202.74
2018-05-18T00:11:57.947Z,101199.75
2018-05-18T00:15:03.176Z,101195.50
2018-05-18T00:18:09.130Z,101195.55
2018-05-18T00:21:16.174Z,101196.22
2018-05-18T00:24:22.046Z,101198.76
2018-05-18T00:27:27.285Z,101200.45
2018-05-18T00:30:32.504Z,101203.50
2018-05-18T00:33:37.721Z,101203.92
2018-05-18T00:36:43.568Z,101197.59
2018-05-18T00:39:48.856Z,101204.04
2018-05-18T00:42:54.586Z,101206.66
2018-05-18T00:46:00.731Z,101210.99
2018-05-18T00:49:05.954Z,101206.33
2018-05-18T00:52:11.651Z,101201.67
2018-05-18T00:55:27.970Z,101212.86
2018-05-18T00:58:33.427Z,101217.34
2018-05-18T01:01:39.404Z,101217.69
2018-05-18T01:04:45.213Z,101211.78
2018-05-18T01:07:52.380Z,101205.34
2018-05-18T01:10:57.916Z,101213.66
2018-05-18T01:14:02.859Z,101204.18
2018-05-18T01:17:08.071Z,101205.30
2018-05-18T01:20:13.018Z,101208.62
2018-05-18T01:23:18.852Z,101211.12
2018-05-18T01:26:23.734Z,101214.54
2018-05-18T01:29:29.851Z,101209.50
2018-05-18T01:32:36.651Z,101204.80
2018-05-18T01:35:41.758Z,101205.26
2018-05-18T01:38:47.481Z,101205.30
2018-05-18T01:41:53.215Z,101207.92
2018-05-18T01:44:58.428Z,101211.88
2018-05-18T01:48:04.220Z,101203.31
2018-05-18T01:51:09.439Z,101208.45
2018-05-18T01:54:14.692Z,101207.63
2018-05-18T01:57:20.531Z,101214.50
2018-05-18T02:00:26.742Z,101215.37
2018-05-18T02:03:32.779Z,101212.45
2018-05-18T02:06:38.035Z,101209.50
2018-05-18T02:09:44.224Z,101215.91
2018-05-18T02:12:50.036Z,101208.67
2018-05-18T02:15:56.276Z,101206.13
2018-05-18T02:19:01.476Z,101213.86
2018-05-18T02:22:06.764Z,101213.08
2018-05-18T02:25:11.977Z,101212.70
2018-05-18T02:28:17.210Z,101219.56
2018-05-18T02:31:22.459Z,101224.34
2018-05-18T02:34:29.062Z,101219.72
2018-05-18T02:37:34.312Z,101217.98
2018-05-18T02:40:40.301Z,101218.02
2018-05-18T02:43:46.241Z,101219.36
2018-05-18T02:46:51.986Z,101228.08
2018-05-18T02:49:57.194Z,101224.63
2018-05-18T02:53:03.340Z,101230.25
2018-05-18T02:56:09.195Z,101234.11
2018-05-18T02:59:15.178Z,101234.16
2018-05-18T03:02:21.023Z,101240.22
2018-05-18T03:05:26.278Z,101238.09
2018-05-18T03:08:32.425Z,101234.73
2018-05-18T03:11:38.787Z,101235.59
2018-05-18T03:14:44.450Z,101239.05
2018-05-18T03:17:49.877Z,101245.08
2018-05-18T03:20:55.135Z,101253.72
2018-05-18T03:24:01.604Z,101247.69
2018-05-18T03:27:07.329Z,101252.93
2018-05-18T03:30:13.491Z,101243.50
2018-05-18T03:33:18.711Z,101241.83
2018-05-18T03:36:24.843Z,101247.77
2018-05-18T03:39:30.475Z,101244.45
2018-05-18T03:42:37.494Z,101244.95
2018-05-18T03:45:42.726Z,101241.08
2018-05-18T03:48:48.659Z,101241.91
2018-05-18T03:51:54.635Z,101247.60
2018-05-18T03:54:59.876Z,101243.73
2018-05-18T03:58:05.263Z,101247.03
2018-05-18T04:01:10.909Z,101244.95
2018-05-18T04:04:27.020Z,101247.60
2018-05-18T04:07:43.889Z,101251.80
2018-05-18T04:10:49.362Z,101254.88
2018-05-18T04:13:55.414Z,101256.70
2018-05-18T04:17:00.470Z,101257.08
2018-05-18T04:20:06.328Z,101256.55
2018-05-18T04:23:12.477Z,101261.20
2018-05-18T04:26:18.323Z,101265.07
2018-05-18T04:29:25.081Z,101262.49
2018-05-18T04:32:30.158Z,101264.77
2018-05-18T04:35:36.014Z,101262.98
2018-05-18T04:38:41.240Z,101259.50
2018-05-18T04:41:47.393Z,101258.21
2018-05-18T04:44:52.601Z,101259.42
2018-05-18T04:47:57.814Z,101260.67
2018-05-18T04:51:04.958Z,101265.83
2018-05-18T04:54:10.017Z,101266.69
2018-05-18T04:57:15.766Z,101268.69
2018-05-18T05:00:21.008Z,101267.33
2018-05-18T05:03:26.232Z,101269.91
2018-05-18T05:06:31.466Z,101275.85
2018-05-18T05:09:36.877Z,101280.09
2018-05-18T05:12:42.525Z,101288.05
2018-05-18T05:15:47.734Z,101283.80
2018-05-18T05:18:54.160Z,101288.38
2018-05-18T05:22:00.062Z,101287.55
2018-05-18T05:25:06.058Z,101292.50
2018-05-18T05:28:12.221Z,101302.66
2018-05-18T05:31:17.435Z,101299.21
2018-05-18T05:34:24.338Z,101301.75
2018-05-18T05:37:30.196Z,101302.58
2018-05-18T05:40:36.356Z,101299.42
2018-05-18T05:43:42.278Z,101309.62
2018-05-18T05:46:47.552Z,101301.72
2018-05-18T05:49:52.913Z,101306.78
2018-05-18T05:52:58.530Z,101303.70
2018-05-18T05:56:04.665Z,101311.63
2018-05-18T05:59:10.325Z,101316.16
2018-05-18T06:02:15.530Z,101322.91
2018-05-18T06:05:20.771Z,101320.12
2018-05-18T06:08:27.076Z,101326.33
2018-05-18T06:11:32.293Z,101326.16
2018-05-18T06:14:38.002Z,101330.28
2018-05-18T06:17:44.128Z,101332.63
2018-05-18T06:20:49.790Z,101334.61
2018-05-18T06:23:55.905Z,101337.41
2018-05-18T06:27:01.959Z,101336.28
2018-05-18T06:30:07.174Z,101339.11
2018-05-18T06:33:13.395Z,101346.14
2018-05-18T06:36:20.249Z,101350.14
2018-05-18T06:39:26.079Z,101357.22
2018-05-18T06:42:31.305Z,101357.84
2018-05-18T06:45:36.512Z,101351.97
2018-05-18T06:48:41.730Z,101351.83
2018-05-18T06:51:47.577Z,101356.70
2018-05-18T06:54:52.514Z,101357.77
2018-05-18T06:57:57.742Z,101355.02
2018-05-18T07:01:02.959Z,101359.98
2018-05-18T07:04:08.274Z,101360.62
2018-05-18T07:07:14.349Z,101363.92
2018-05-18T07:10:20.400Z,101365.00
2018-05-18T07:13:26.493Z,101363.53
2018-05-18T07:16:32.470Z,101371.10
2018-05-18T07:19:39.593Z,101376.98
2018-05-18T07:22:46.153Z,101379.80
2018-05-18T07:25:51.797Z,101379.72
2018-05-18T07:28:57.867Z,101380.08
2018-05-18T07:32:03.135Z,101376.58
2018-05-18T07:35:09.161Z,101375.19
2018-05-18T07:38:15.302Z,101371.64
2018-05-18T07:41:20.930Z,101378.34
2018-05-18T07:44:26.924Z,101370.50
2018-05-18T07:47:32.748Z,101378.12
2018-05-18T07:50:37.637Z,101384.45
2018-05-18T07:53:42.891Z,101385.16
2018-05-18T07:56:48.097Z,101382.02
2018-05-18T07:59:53.310Z,101385.86
2018-05-18T08:02:59.560Z,101387.92
2018-05-18T08:06:04.775Z,101393.42
2018-05-18T08:09:10.229Z,101387.30
2018-05-18T08:12:16.293Z,101393.25
2018-05-18T08:15:21.514Z,101398.42
2018-05-18T08:18:26.490Z,101396.16
2018-05-18T08:21:32.795Z,101399.13
2018-05-18T08:24:38.883Z,101399.44
2018-05-18T08:27:44.806Z,101404.06
2018-05-18T08:31:02.056Z,101414.69
2018-05-18T08:34:07.459Z,101413.68
2018-05-18T08:37:13.464Z,101414.47
2018-05-18T08:40:19.300Z,101423.44
2018-05-18T08:43:25.215Z,101422.23
2018-05-18T08:46:30.749Z,101421.25
2018-05-18T08:49:35.978Z,101423.37
2018-05-18T08:52:41.194Z,101428.76
2018-05-18T08:55:48.350Z,101421.09
2018-05-18T08:58:54.190Z,101421.43
2018-05-18T09:02:00.237Z,101422.56
2018-05-18T09:05:06.038Z,101435.69
2018-05-18T09:08:10.967Z,101433.61
2018-05-18T09:11:16.719Z,101433.80
2018-05-18T09:14:22.872Z,101439.76
2018-05-18T09:17:29.000Z,101433.02
2018-05-18T09:20:35.329Z,101441.53
2018-05-18T09:23:40.549Z,101447.91
2018-05-18T09:26:46.674Z,101447.06
2018-05-18T09:29:52.798Z,101447.38
2018-05-18T09:32:58.828Z,101455.42
2018-05-18T09:36:04.751Z,101451.75
2018-05-18T09:39:10.705Z,101452.44
2018-05-18T09:42:16.120Z,101451.86
2018-05-18T09:45:22.786Z,101456.35
2018-05-18T09:48:28.005Z,101463.15
2018-05-18T09:51:34.131Z,101461.30
2018-05-18T09:54:39.918Z,101460.00
2018-05-18T09:57:46.727Z,101456.91
2018-05-18T10:00:53.277Z,101460.84
2018-05-18T10:03:58.495Z,101461.54
2018-05-18T10:07:03.835Z,101467.41
2018-05-18T10:10:10.078Z,101461.78
2018-05-18T10:13:15.698Z,101465.33
2018-05-18T10:16:20.922Z,101471.53
2018-05-18T10:19:26.151Z,101477.35
2018-05-18T10:22:31.869Z,101480.69
2018-05-18T10:25:37.905Z,101480.93
2018-05-18T10:28:43.137Z,101484.71
2018-05-18T10:31:49.248Z,101484.48
2018-05-18T10:34:55.394Z,101489.08
2018-05-18T10:38:01.046Z,101482.05
2018-05-18T10:41:07.162Z,101484.04
2018-05-18T10:44:13.402Z,101484.83
2018-05-18T10:47:19.222Z,101489.45
2018-05-18T10:50:24.198Z,101490.20
2018-05-18T10:53:30.384Z,101493.99
2018-05-18T10:56:36.722Z,101498.20
2018-05-18T10:59:42.351Z,101498.14
2018-05-18T11:02:49.246Z,101491.59
2018-05-18T11:05:55.145Z,101496.72
2018-05-18T11:09:00.974Z,101498.30
2018-05-18T11:12:06.381Z,101496.08
2018-05-18T11:15:11.678Z,101499.03
2018-05-18T11:18:17.810Z,101504.13
2018-05-18T11:21:23.649Z,101501.91
2018-05-18T11:24:29.800Z,101505.27
2018-05-18T11:27:35.711Z,101501.63
2018-05-18T11:30:40.973Z,101491.55
2018-05-18T11:33:46.179Z,101498.72
2018-05-18T11:36:51.842Z,101500.33
2018-05-18T11:39:58.018Z,101497.19
2018-05-18T11:43:03.273Z,101501.81
2018-05-18T11:46:08.487Z,101508.57
2018-05-18T11:49:13.697Z,101502.39
2018-05-18T11:52:18.913Z,101505.27
2018-05-18T11:55:24.543Z,101506.80
2018-05-18T11:58:29.754Z,101512.72
2018-05-18T12:01:35.500Z,101513.50
2018-05-18T12:04:40.710Z,101516.59
2018-05-18T12:07:46.557Z,101517.70
2018-05-18T12:10:51.442Z,101526.25
2018-05-18T12:13:58.196Z,101518.16
2018-05-18T12:17:03.977Z,101519.41
2018-05-18T12:20:11.111Z,101527.23
2018-05-18T12:23:16.936Z,101528.43
2018-05-18T12:26:22.874Z,101532.36
2018-05-18T12:29:29.005Z,101531.58
2018-05-18T12:32:34.941Z,101529.88
2018-05-18T12:35:41.207Z,101530.75
2018-05-18T12:38:47.034Z,101530.02
2018-05-18T12:41:54.325Z,101529.31
2018-05-18T12:45:00.033Z,101536.25
2018-05-18T12:48:05.373Z,101528.85
2018-05-18T12:51:11.010Z,101530.66
2018-05-18T12:54:16.237Z,101523.30
2018-05-18T12:57:22.512Z,101531.48
2018-05-18T13:00:28.358Z,101531.53
2018-05-18T13:03:33.568Z,101531.20
2018-05-18T13:06:39.189Z,101536.76
2018-05-18T13:09:44.412Z,101528.98
2018-05-18T13:12:49.645Z,101534.08
2018-05-18T13:15:54.923Z,101532.23
2018-05-18T13:19:00.275Z,101530.52
2018-05-18T13:22:05.673Z,101531.86
2018-05-18T13:25:10.899Z,101528.89
2018-05-18T13:28:16.119Z,101527.78
2018-05-18T13:31:22.251Z,101530.33
2018-05-18T13:34:28.276Z,101527.93
2018-05-18T13:37:35.114Z,101529.64
2018-05-18T13:40:41.033Z,101522.34
2018-05-18T13:43:47.088Z,101523.62
2018-05-18T13:46:53.105Z,101521.00
2018-05-18T13:49:59.130Z,101518.78
2018-05-18T13:53:04.352Z,101523.11
2018-05-18T13:56:09.556Z,101524.84
2018-05-18T13:59:15.189Z,101526.55
2018-05-18T14:02:20.415Z,101529.54
2018-05-18T14:05:25.640Z,101530.74
2018-05-18T14:08:31.271Z,101526.39
2018-05-18T14:11:36.489Z,101524.97
2018-05-18T14:14:42.603Z,101521.04
2018-05-18T14:17:47.846Z,101520.58
2018-05-18T14:20:53.709Z,101525.71
2018-05-18T14:23:59.829Z,101526.22
2018-05-18T14:27:04.705Z,101527.52
2018-05-18T14:30:10.327Z,101520.25
2018-05-18T14:33:15.539Z,101527.09
2018-05-18T14:36:21.733Z,101526.27
2018-05-18T14:39:26.957Z,101525.89
2018-05-18T14:42:33.103Z,101524.18
2018-05-18T14:45:38.862Z,101528.02
2018-05-18T14:48:44.069Z,101528.20
2018-05-18T14:51:50.197Z,101522.19
2018-05-18T14:54:56.139Z,101523.02
2018-05-18T14:58:01.769Z,101519.97
2018-05-18T15:01:07.517Z,101526.86
2018-05-18T15:04:13.716Z,101519.97
2018-05-18T15:07:19.142Z,101517.80
2018-05-18T15:10:24.360Z,101517.75
2018-05-18T15:13:29.597Z,101516.08
2018-05-18T15:16:35.319Z,101519.88
2018-05-18T15:19:40.736Z,101522.52
2018-05-18T15:22:46.957Z,101523.90
2018-05-18T15:25:52.790Z,101520.02
2018-05-18T15:28:58.990Z,101523.44
2018-05-18T15:32:04.090Z,101524.77
2018-05-18T15:35:10.034Z,101525.76
2018-05-18T15:38:15.819Z,101528.72
2018-05-18T15:41:22.017Z,101531.40
2018-05-18T15:44:28.750Z,101532.80
2018-05-18T15:47:34.387Z,101526.63
2018-05-18T15:50:40.515Z,101518.95
2018-05-18T15:53:45.735Z,101530.73
2018-05-18T15:56:50.951Z,101538.70
2018-05-18T15:59:56.690Z,101532.23
2018-05-18T16:03:02.430Z,101533.89
2018-05-18T16:06:09.398Z,101529.17
2018-05-18T16:09:15.327Z,101532.23
2018-05-18T16:12:22.284Z,101524.41
2018-05-18T16:15:27.934Z,101535.19
2018-05-18T16:18:33.664Z,101532.59
2018-05-18T16:21:39.809Z,101530.01
2018-05-18T16:24:46.000Z,101527.92
2018-05-18T16:27:51.266Z,101532.40
2018-05-18T16:30:58.153Z,101526.39
2018-05-18T16:34:03.772Z,101531.74
2018-05-18T16:37:09.425Z,101523.38
2018-05-18T16:40:14.738Z,101526.42
2018-05-18T16:43:20.985Z,101525.64
2018-05-18T16:46:27.549Z,101529.14
2018-05-18T16:49:33.676Z,101532.37
2018-05-18T16:52:39.317Z,101537.81
2018-05-18T16:55:44.565Z,101536.45
2018-05-18T16:58:49.946Z,101534.80
2018-05-18T17:01:56.071Z,101531.75
2018-05-18T17:05:01.721Z,101535.72
2018-05-18T17:08:07.661Z,101537.05
2018-05-18T17:11:13.398Z,101536.22
2018-05-18T17:14:20.025Z,101541.89
2018-05-18T17:17:27.298Z,101543.82
2018-05-18T17:20:32.933Z,101547.84
2018-05-18T17:23:39.599Z,101542.92
2018-05-18T17:26:45.151Z,101546.91
2018-05-18T17:29:50.093Z,101550.41
2018-05-18T17:32:56.981Z,101547.03
2018-05-18T17:36:02.366Z,101549.28
2018-05-18T17:39:07.777Z,101546.00
2018-05-18T17:42:13.554Z,101553.63
2018-05-18T17:45:19.384Z,101551.55
2018-05-18T17:48:25.501Z,101551.30
2018-05-18T17:51:32.341Z,101550.55
2018-05-18T17:54:37.876Z,101553.52
2018-05-18T17:57:44.546Z,101556.18
2018-05-18T18:00:50.185Z,101558.30
2018-05-18T18:03:55.915Z,101553.84
2018-05-18T18:07:01.777Z,101555.36
2018-05-18T18:10:06.391Z,101555.73
2018-05-18T18:13:12.261Z,101555.73
2018-05-18T18:16:18.326Z,101562.98
2018-05-18T18:19:23.467Z,101568.20
2018-05-18T18:22:28.487Z,101563.91
2018-05-18T18:25:33.837Z,101565.31
2018-05-18T18:28:39.213Z,101567.95
2018-05-18T18:31:45.241Z,101562.95
2018-05-18T18:34:50.460Z,101567.81
2018-05-18T18:37:55.385Z,101570.56
2018-05-18T18:41:01.761Z,101570.73
2018-05-18T18:44:08.053Z,101573.77
2018-05-18T18:47:13.282Z,101575.22
2018-05-18T18:50:18.722Z,101578.77
2018-05-18T18:53:23.657Z,101582.42
2018-05-18T18:56:30.601Z,101582.42
2018-05-18T18:59:35.949Z,101583.94
2018-05-18T19:02:41.169Z,101595.15
2018-05-18T19:05:46.617Z,101593.08
2018-05-18T19:08:51.555Z,101603.59
2018-05-18T19:11:57.426Z,101601.08
2018-05-18T19:15:02.018Z,101605.03
2018-05-18T19:18:06.961Z,101612.74
2018-05-18T19:21:12.453Z,101607.66
2018-05-18T19:24:18.250Z,101615.48
2018-05-18T19:27:24.325Z,101614.69
2018-05-18T19:30:29.770Z,101618.22
2018-05-18T19:33:34.749Z,101615.83
2018-05-18T19:36:39.970Z,101623.58
2018-05-18T19:39:45.845Z,101624.53
2018-05-18T19:42:51.206Z,101616.86
2018-05-18T19:45:56.133Z,101619.97
2018-05-18T19:49:01.974Z,101622.37
2018-05-18T19:52:06.918Z,101621.65
2018-05-18T19:55:11.854Z,101620.44
2018-05-18T19:58:17.606Z,101626.96
2018-05-18T20:01:22.559Z,101624.16
2018-05-18T20:04:28.300Z,101629.02
2018-05-18T20:07:34.577Z,101626.92
2018-05-18T20:10:39.943Z,101618.34
2018-05-18T20:13:45.737Z,101615.00
2018-05-18T20:16:50.676Z,101619.02
2018-05-18T20:19:55.882Z,101613.75
2018-05-18T20:23:00.835Z,101611.78
2018-05-18T20:26:06.037Z,101610.48
2018-05-18T20:29:11.495Z,101611.05
2018-05-18T20:32:16.425Z,101611.52
2018-05-18T20:35:22.898Z,101613.78
2018-05-18T20:38:27.821Z,101618.15
2018-05-18T20:41:34.887Z,101621.26
2018-05-18T20:44:40.443Z,101621.94
2018-05-18T20:47:46.098Z,101621.14
2018-05-18T20:50:51.553Z,101626.44
2018-05-18T20:53:56.478Z,101621.89
2018-05-18T20:57:01.422Z,101617.53
2018-05-18T21:00:07.578Z,101622.00
2018-05-18T21:03:13.609Z,101622.88
2018-05-18T21:06:19.301Z,101624.76
2018-05-18T21:09:24.236Z,101621.87
2018-05-18T21:12:30.463Z,101619.71
2018-05-18T21:15:37.038Z,101630.48
2018-05-18T21:18:42.397Z,101622.41
2018-05-18T21:21:47.333Z,101622.12
2018-05-18T21:24:53.194Z,101617.08
2018-05-18T21:27:59.134Z,101621.89
2018-05-18T21:31:04.681Z,101618.55
2018-05-18T21:34:09.637Z,101615.09
2018-05-18T21:37:15.159Z,101617.75
2018-05-18T21:40:21.734Z,101620.54
2018-05-18T21:43:27.566Z,101627.06
2018-05-18T21:46:33.210Z,101622.84
2018-05-18T21:49:39.546Z,101623.34
2018-05-18T21:52:44.486Z,101619.95
2018-05-18T21:55:49.421Z,101622.78
2018-05-18T21:58:54.353Z,101620.31
2018-05-18T22:01:59.581Z,101624.22
2018-05-18T22:05:05.659Z,101623.83
2018-05-18T22:08:10.590Z,101626.76
2018-05-18T22:11:16.342Z,101622.02
2018-05-18T22:14:21.274Z,101620.87
2018-05-18T22:17:26.220Z,101624.77
2018-05-18T22:20:32.774Z,101624.49
2018-05-18T22:23:37.713Z,101632.22
2018-05-18T22:26:43.553Z,101642.85
2018-05-18T22:29:48.490Z,101634.59
2018-05-18T22:32:53.376Z,101621.28
2018-05-18T22:35:59.501Z,101616.30
2018-05-18T22:39:05.381Z,101614.05
2018-05-18T22:42:10.313Z,101620.30
2018-05-18T22:45:15.941Z,101622.29
2018-05-18T22:48:20.891Z,101628.56
2018-05-18T22:51:26.609Z,101625.08
2018-05-18T22:54:33.153Z,101621.67
2018-05-18T22:57:38.498Z,101616.09
2018-05-18T23:00:45.167Z,101622.99
2018-05-18T23:03:52.013Z,101630.72
2018-05-18T23:06:57.374Z,101629.64
2018-05-18T23:10:02.748Z,101630.09
2018-05-18T23:13:08.589Z,101636.22
2018-05-18T23:16:13.986Z,101629.66
2018-05-18T23:19:20.044Z,101625.58
2018-05-18T23:22:26.065Z,101624.81
2018-05-18T23:25:31.905Z,101626.30
2018-05-18T23:28:37.539Z,101621.60
2018-05-18T23:31:43.209Z,101627.34
2018-05-18T23:34:49.482Z,101627.47
2018-05-18T23:37:55.393Z,101629.73
2018-05-18T23:41:02.434Z,101642.77
2018-05-18T23:44:08.242Z,101636.11
2018-05-18T23:47:14.449Z,101634.50
2018-05-18T23:50:20.486Z,101632.60
2018-05-18T23:53:26.430Z,101643.93
2018-05-18T23:56:33.234Z,101645.38
2018-05-18T23:59:38.445Z,101646.05
